Time;durP1;ratioP1;P1;durP2;ratioP2;P2;SDS_P1;SDS_P2;PMS_P1;PMS_P2;Temp;Humidity;BMP_temperature;BMP_pressure;BME280_temperature;BME280_humidity;BME280_pressure;Samples;Min_cycle;Max_cycle;Signal;HPM_P1;HPM_P2
2022/05/12 00:00:50;;;;;;;4.18;1.90;;;;;;;17.04;58.51;94895.59;4828448;29;20025;-94
2022/05/12 00:03:17;;;;;;;9.45;2.05;;;;;;;16.95;58.01;94890.94;4798654;29;20141;-93
2022/05/12 00:05:43;;;;;;;7.22;2.38;;;;;;;16.93;59.21;94895.00;4798228;29;20042;-94
2022/05/12 00:08:09;;;;;;;4.95;2.50;;;;;;;17.08;59.02;94888.63;4798167;29;20034;-93
2022/05/12 00:10:35;;;;;;;7.28;2.00;;;;;;;17.06;58.19;94898.72;4798175;29;20051;-93
2022/05/12 00:13:01;;;;;;;3.92;1.83;;;;;;;17.26;57.98;94894.09;4798062;29;20030;-94
2022/05/12 00:15:31;;;;;;;4.25;2.15;;;;;;;17.26;57.30;94894.09;4812984;29;20041;-93
2022/05/12 00:17:57;;;;;;;3.78;2.17;;;;;;;17.21;58.36;94887.84;4813082;29;20034;-92
2022/05/12 00:20:23;;;;;;;8.73;2.10;;;;;;;17.42;55.59;94882.09;4798028;29;20082;-94
2022/05/12 00:22:49;;;;;;;5.22;2.35;;;;;;;17.27;56.96;94893.00;4813446;29;20034;-93
2022/05/12 00:25:23;;;;;;;5.05;2.38;;;;;;;17.42;56.07;94881.31;4798223;29;20349;-92
2022/05/12 00:27:48;;;;;;;4.20;2.30;;;;;;;17.41;55.76;94887.72;4798299;29;20125;-93
2022/05/12 00:30:17;;;;;;;5.13;1.95;;;;;;;17.35;55.10;94889.69;4797761;29;20429;-94
2022/05/12 00:32:45;;;;;;;6.55;2.30;;;;;;;17.36;56.74;94886.75;4798147;29;20034;-93
2022/05/12 00:35:13;;;;;;;5.85;2.20;;;;;;;17.50;56.20;94889.34;4797740;29;20045;-95
2022/05/12 00:37:38;;;;;;;5.55;2.30;;;;;;;17.41;56.06;94891.13;4797597;29;20409;-92
2022/05/12 00:40:07;;;;;;;5.60;2.45;;;;;;;17.29;57.13;94880.28;4798038;29;20122;-93
2022/05/12 00:42:42;;;;;;;;;;;;;;;;;;;;;
2022/05/12 00:45:11;;;;;;;5.72;2.47;;;;;;;17.34;55.90;94885.47;4814213;29;20041;-93
2022/05/12 00:47:39;;;;;;;3.28;2.17;;;;;;;17.36;56.42;94892.03;4797845;29;20330;-94
2022/05/12 00:50:05;;;;;;;9.52;2.45;;;;;;;17.34;57.50;94886.22;4797722;29;20034;-92
2022/05/12 00:52:31;;;;;;;5.32;2.50;;;;;;;17.10;60.15;94886.47;4797471;29;20034;-92
2022/05/12 00:55:07;;;;;;;7.63;2.60;;;;;;;17.23;60.65;94892.84;4811832;29;20490;-92
2022/05/12 00:57:42;;;;;;;5.68;2.35;;;;;;;17.12;60.74;94886.94;4798298;29;20038;-91
2022/05/12 01:00:11;;;;;;;3.83;2.13;;;;;;;17.08;60.30;94892.06;4812294;29;20463;-93
2022/05/12 01:02:38;;;;;;;7.30;2.60;;;;;;;16.98;61.25;94879.00;4797810;29;20423;-93
2022/05/12 01:05:05;;;;;;;6.85;2.35;;;;;;;17.08;59.71;94881.47;4797332;29;20042;-93
2022/05/12 01:07:31;;;;;;;4.32;2.63;;;;;;;16.99;59.74;94880.59;4797319;29;20095;-92
2022/05/12 01:09:56;;;;;;;6.90;2.35;;;;;;;17.13;58.94;94883.22;4798033;29;20034;-92
2022/05/12 01:12:30;;;;;;;8.98;2.38;;;;;;;17.16;58.15;94881.84;4797169;29;20460;-92
2022/05/12 01:14:58;;;;;;;4.60;2.35;;;;;;;17.09;57.59;94880.41;4813127;29;20030;-92
2022/05/12 01:17:34;;;;;;;;;;;;;;;;;;;;;
2022/05/12 01:20:00;;;;;;;4.97;2.20;;;;;;;16.92;59.14;94886.25;4813474;29;20018;-93
2022/05/12 01:22:40;;;;;;;9.70;2.35;;;;;;;16.94;59.33;94891.25;4797133;29;20516;-94
2022/05/12 01:25:12;;;;;;;6.30;2.20;;;;;;;16.91;59.30;94884.69;4812446;29;20035;-94
2022/05/12 01:27:39;;;;;;;6.17;2.10;;;;;;;16.92;58.35;94891.53;4797266;29;20034;-92
2022/05/12 01:30:19;;;;;;;4.07;2.20;;;;;;;16.91;58.51;94878.59;4797295;29;20045;-92
2022/05/12 01:32:47;;;;;;;3.88;2.00;;;;;;;17.12;56.46;94880.88;4797386;29;20440;-93
2022/05/12 01:35:18;;;;;;;6.57;1.70;;;;;;;17.19;55.10;94881.25;4797502;29;20026;-92
2022/05/12 01:37:45;;;;;;;8.52;1.95;;;;;;;17.15;54.66;94881.09;4797368;29;20037;-93
2022/05/12 01:40:13;;;;;;;4.63;1.73;;;;;;;17.10;54.38;94881.97;4811948;29;20030;-92
2022/05/12 01:42:42;;;;;;;5.05;1.42;;;;;;;17.02;54.25;94893.25;4797210;29;20046;-93
2022/05/12 01:45:08;;;;;;;10.60;1.90;;;;;;;16.95;54.59;94882.25;4797465;29;20349;-93
2022/05/12 01:47:37;;;;;;;5.03;1.60;;;;;;;16.91;54.42;94882.03;4796964;29;20035;-94
2022/05/12 01:50:07;;;;;;;4.38;1.58;;;;;;;16.71;55.08;94877.91;4797180;29;20035;-92
2022/05/12 01:52:35;;;;;;;3.83;1.30;;;;;;;16.83;54.61;94880.06;4797338;29;20030;-93
2022/05/12 01:55:01;;;;;;;4.00;1.58;;;;;;;17.14;53.16;94876.84;4796834;29;20030;-93
2022/05/12 01:57:36;;;;;;;;;;;;;;;;;;;;;
2022/05/12 02:00:14;;;;;;;7.25;1.67;;;;;;;16.97;53.16;94874.78;4827184;29;20019;-93
2022/05/12 02:02:49;;;;;;;3.40;1.20;;;;;;;17.05;52.82;94860.88;4797974;29;20034;-93
2022/05/12 02:05:17;;;;;;;8.05;1.95;;;;;;;16.88;53.29;94871.25;4798051;29;20026;-92
2022/05/12 02:07:45;;;;;;;4.00;1.48;;;;;;;16.80;53.43;94870.88;4815486;29;20027;-93
2022/05/12 02:10:14;;;;;;;7.18;1.45;;;;;;;16.76;53.61;94891.03;4800307;29;20057;-94
2022/05/12 02:13:29;;;;;;;5.22;1.67;;;;;;;16.74;53.36;94892.44;4815038;29;20054;-93
2022/05/12 02:19:30;;;;;;;5.43;1.70;;;;;;;16.88;52.16;94874.69;4831044;29;20102;-93
2022/05/12 02:21:57;;;;;;;3.75;1.50;;;;;;;16.82;52.41;94875.84;4799985;29;20441;-92
2022/05/12 02:24:23;;;;;;;9.73;1.50;;;;;;;16.79;52.09;94882.53;4814905;29;20034;-94
2022/05/12 02:26:49;;;;;;;5.57;1.45;;;;;;;16.91;51.91;94881.25;4814815;29;20069;-92
2022/05/12 02:29:14;;;;;;;8.80;1.58;;;;;;;16.80;51.86;94881.47;4800034;29;20052;-92
2022/05/12 02:31:50;;;;;;;;;;;;;;;;;;;;;
2022/05/12 02:34:17;;;;;;;6.18;1.45;;;;;;;16.95;51.17;94879.59;4816268;29;20035;-93
2022/05/12 02:36:59;;;;;;;5.25;1.48;;;;;;;17.09;50.84;94882.25;4800068;29;20038;-93
2022/05/12 02:39:29;;;;;;;6.90;1.40;;;;;;;16.84;52.14;94889.56;4802076;29;20030;-93
2022/05/12 02:41:57;;;;;;;5.70;1.40;;;;;;;16.89;51.06;94889.50;4800249;29;20464;-93
2022/05/12 02:44:27;;;;;;;13.00;2.00;;;;;;;16.82;51.63;94884.59;4799959;29;20042;-94
2022/05/12 02:46:53;;;;;;;7.45;1.58;;;;;;;16.92;51.21;94877.50;4799906;29;20097;-93
2022/05/12 02:49:20;;;;;;;6.90;1.50;;;;;;;17.01;50.81;94875.78;4799573;29;20038;-93
2022/05/12 02:51:47;;;;;;;9.65;1.95;;;;;;;16.99;51.65;94880.59;4800112;29;20405;-93
2022/05/12 02:54:23;;;;;;;5.82;1.73;;;;;;;17.16;50.54;94873.91;4814545;29;20129;-93
2022/05/12 02:56:52;;;;;;;7.50;1.40;;;;;;;17.14;50.93;94876.84;4814451;29;20437;-92
2022/05/12 02:59:22;;;;;;;3.58;1.30;;;;;;;17.00;50.63;94884.81;4814670;29;20037;-93
2022/05/12 03:01:47;;;;;;;10.88;1.60;;;;;;;17.19;50.19;94882.06;4799899;29;20030;-92
2022/05/12 03:04:22;;;;;;;10.27;1.67;;;;;;;17.03;50.74;94884.22;4799624;29;20341;-93
2022/05/12 03:06:48;;;;;;;7.75;1.33;;;;;;;16.85;50.79;94885.09;4800808;29;20026;-91
2022/05/12 03:09:14;;;;;;;5.20;1.30;;;;;;;16.81;51.13;94861.06;4799858;29;20133;-94
2022/05/12 03:11:42;;;;;;;7.57;1.80;;;;;;;16.71;51.17;94883.22;4799319;29;20049;-93
2022/05/12 03:14:10;;;;;;;6.22;1.50;;;;;;;16.75;51.30;94865.66;4799236;29;20068;-92
2022/05/12 03:16:36;;;;;;;8.38;1.58;;;;;;;17.02;50.24;94879.22;4799044;29;20038;-92
2022/05/12 03:19:03;;;;;;;5.82;1.52;;;;;;;17.02;50.28;94885.28;4798423;29;20450;-92
2022/05/12 03:21:44;;;;;;;4.63;1.50;;;;;;;16.88;50.80;94892.44;4799145;29;20083;-92
2022/05/12 03:24:10;;;;;;;9.38;1.60;;;;;;;16.66;51.10;94878.03;4800321;29;20120;-93
2022/05/12 03:26:38;;;;;;;6.57;1.80;;;;;;;16.75;50.56;94880.78;4798916;29;20061;-93
2022/05/12 03:29:04;;;;;;;4.95;1.50;;;;;;;16.86;50.49;94868.13;4798609;29;20501;-93
2022/05/12 03:31:31;;;;;;;12.90;1.83;;;;;;;16.68;50.54;94874.00;4828826;29;20046;-91
2022/05/12 03:33:57;;;;;;;5.78;1.67;;;;;;;16.65;51.04;94879.09;4799066;29;20038;-93
2022/05/12 03:36:22;;;;;;;6.78;1.25;;;;;;;16.70;51.06;94881.66;4798639;29;20030;-93
2022/05/12 03:38:50;;;;;;;2.85;1.30;;;;;;;16.51;51.34;94885.16;4798639;29;20045;-94
2022/05/12 03:41:16;;;;;;;4.53;1.42;;;;;;;16.60;51.49;94874.69;4798927;29;20038;-92
2022/05/12 03:46:31;;;;;;;7.32;1.90;;;;;;;16.59;50.87;94890.84;4815796;29;20543;-93
2022/05/12 03:48:59;;;;;;;5.45;1.40;;;;;;;16.80;50.30;94860.28;4799187;29;20441;-94
2022/05/12 03:51:28;;;;;;;8.13;1.35;;;;;;;16.84;50.07;94865.00;4798878;29;20040;-93
2022/05/12 03:53:53;;;;;;;5.10;1.40;;;;;;;16.95;49.57;94884.88;4799228;29;20034;-92
2022/05/12 03:56:19;;;;;;;2.97;1.42;;;;;;;16.66;50.61;94880.69;4813434;29;20057;-92
2022/05/12 03:58:45;;;;;;;4.55;1.30;;;;;;;16.59;51.40;94875.75;4813603;29;20031;-91
2022/05/12 04:01:18;;;;;;;3.55;1.17;;;;;;;16.65;50.68;94874.59;4813703;29;20382;-93
2022/05/12 04:03:45;;;;;;;4.40;1.50;;;;;;;16.68;50.41;94883.81;4799312;29;20414;-93
2022/05/12 04:06:11;;;;;;;6.53;1.55;;;;;;;16.54;51.50;94873.19;4798341;29;20420;-93
2022/05/12 04:08:36;;;;;;;3.28;1.20;;;;;;;16.39;52.42;94887.50;4797922;29;20034;-93
2022/05/12 04:11:02;;;;;;;5.28;1.90;;;;;;;16.42;51.68;94878.97;4813241;29;20475;-94
2022/05/12 04:13:30;;;;;;;5.57;1.67;;;;;;;15.89;55.11;94886.16;4798533;29;20395;-93
2022/05/12 04:15:57;;;;;;;7.70;1.70;;;;;;;15.49;57.19;94881.16;4798339;29;20121;-94
2022/05/12 04:18:23;;;;;;;8.57;1.88;;;;;;;15.23;58.30;94886.78;4798440;29;20461;-92
2022/05/12 04:20:52;;;;;;;8.82;2.40;;;;;;;15.13;60.08;94892.97;4812887;29;20085;-93
2022/05/12 04:23:18;;;;;;;13.95;2.20;;;;;;;14.80;62.29;94892.84;4798249;29;20058;-93
2022/05/12 04:25:44;;;;;;;3.90;1.42;;;;;;;14.70;62.07;94890.28;4798240;29;20046;-93
2022/05/12 04:28:09;;;;;;;4.43;1.55;;;;;;;14.79;60.19;94895.75;4797919;29;20034;-93
2022/05/12 04:30:36;;;;;;;7.95;1.42;;;;;;;14.54;71.96;94900.97;4797886;29;20357;-92
2022/05/12 04:36:03;;;;;;;7.10;1.67;;;;;;;14.56;71.69;94893.56;4814989;29;20155;-91
2022/05/12 04:38:38;;;;;;;9.57;2.03;;;;;;;14.59;70.80;94894.88;4813183;29;20038;-92
2022/05/12 04:41:03;;;;;;;9.40;2.08;;;;;;;15.11;61.53;94892.47;4798583;29;20121;-91
2022/05/12 04:43:29;;;;;;;6.05;1.85;;;;;;;15.11;63.90;94900.41;4797948;29;20360;-91
2022/05/12 04:45:54;;;;;;;8.55;1.90;;;;;;;15.04;63.69;94904.44;4812131;29;20121;-91
2022/05/12 04:48:20;;;;;;;6.47;1.55;;;;;;;15.49;58.59;94899.66;4827546;29;20042;-90
2022/05/12 04:50:45;;;;;;;7.40;1.60;;;;;;;15.42;61.11;94899.19;4797323;29;20437;-90
2022/05/12 04:53:11;;;;;;;5.05;1.50;;;;;;;14.98;69.88;94899.22;4812428;29;20062;-90
2022/05/12 04:55:40;;;;;;;5.82;1.70;;;;;;;15.01;66.35;94905.78;4797546;29;20034;-91
2022/05/12 04:58:05;;;;;;;11.27;1.10;;;;;;;15.94;57.64;94903.81;4797828;29;20460;-91
2022/05/12 05:00:40;;;;;;;4.32;1.50;;;;;;;15.58;63.56;94899.78;4797745;29;20034;-91
2022/05/12 05:03:25;;;;;;;3.33;1.67;;;;;;;15.35;69.36;94896.94;4797227;29;20054;-91
2022/05/12 05:05:54;;;;;;;5.25;1.83;;;;;;;15.51;64.18;94899.38;4797355;29;20037;-91
2022/05/12 05:08:22;;;;;;;3.55;1.65;;;;;;;15.92;58.73;94898.81;4812606;29;20030;-91
2022/05/12 05:10:48;;;;;;;7.28;1.60;;;;;;;15.81;61.85;94915.88;4800233;29;20030;-90
2022/05/12 05:13:22;;;;;;;6.55;1.75;;;;;;;15.80;60.07;94909.00;4815500;29;20030;-90
2022/05/12 05:15:49;;;;;;;4.05;1.33;;;;;;;15.97;63.65;94909.31;4816100;29;20038;-90
2022/05/12 05:18:16;;;;;;;9.27;2.08;;;;;;;15.57;66.28;94913.28;4815011;29;20106;-90
2022/05/12 05:20:42;;;;;;;4.90;1.90;;;;;;;16.22;58.53;94909.19;4830234;29;20029;-89
2022/05/12 05:23:21;;;;;;;6.90;1.50;;;;;;;16.58;57.15;94910.44;4830410;29;20469;-90
2022/05/12 05:25:48;;;;;;;4.93;1.48;;;;;;;16.75;54.75;94915.94;4815640;29;20330;-90
2022/05/12 05:28:14;;;;;;;6.65;1.50;;;;;;;16.76;56.73;94912.22;4815312;29;20030;-90
2022/05/12 05:30:41;;;;;;;4.43;1.45;;;;;;;16.69;59.93;94911.81;4815056;29;20046;-90
2022/05/12 05:33:07;;;;;;;6.75;1.27;;;;;;;16.88;55.35;94911.75;4815051;29;20030;-90
2022/05/12 05:35:34;;;;;;;4.97;1.95;;;;;;;16.82;58.04;94921.63;4814708;29;20034;-89
2022/05/12 05:38:00;;;;;;;3.92;1.50;;;;;;;16.74;58.78;94927.59;4830371;29;20053;-90
2022/05/12 05:40:26;;;;;;;9.90;2.00;;;;;;;17.08;56.72;94912.44;4830718;29;20517;-90
2022/05/12 05:42:52;;;;;;;10.23;1.98;;;;;;;17.02;62.17;94924.22;4833521;29;20089;-90
2022/05/12 05:45:22;;;;;;;6.63;1.52;;;;;;;17.10;63.82;94926.19;4833621;29;20033;-91
2022/05/12 05:47:57;;;;;;;5.82;1.70;;;;;;;17.03;71.33;94928.44;4833560;29;20443;-90
2022/05/12 05:50:28;;;;;;;5.95;1.70;;;;;;;16.98;68.64;94926.66;4819405;29;20042;-91
2022/05/12 05:55:39;;;;;;;2.67;1.75;;;;;;;17.29;68.97;94926.06;4835693;29;20048;-90
2022/05/12 05:58:09;;;;;;;7.03;1.63;;;;;;;16.94;71.19;94928.31;4833399;29;20423;-90
2022/05/12 06:00:45;;;;;;;;;;;;;;;;;;;;;
2022/05/12 06:03:10;;;;;;;3.65;1.63;;;;;;;17.27;89.37;94933.53;4834656;29;20032;-90
2022/05/12 06:05:37;;;;;;;4.32;1.67;;;;;;;17.30;75.47;94930.28;4833052;29;20104;-90
2022/05/12 06:08:06;;;;;;;9.25;1.98;;;;;;;17.08;74.25;94936.28;4833079;29;20033;-90
2022/05/12 06:10:35;;;;;;;8.32;2.10;;;;;;;17.31;73.03;94939.78;4818661;29;20044;-90
2022/05/12 06:13:09;;;;;;;5.20;1.70;;;;;;;17.27;82.29;94930.88;4818699;29;20030;-90
2022/05/12 06:15:35;;;;;;;4.07;1.90;;;;;;;17.42;82.74;94935.06;4818244;29;20052;-91
2022/05/12 06:18:06;;;;;;;9.73;2.05;;;;;;;17.27;94.90;94933.53;4818287;29;20451;-91
2022/05/12 06:20:34;;;;;;;10.88;1.80;;;;;;;17.15;100.00;94936.69;4818372;29;20061;-91
2022/05/12 06:23:02;;;;;;;4.70;1.90;;;;;;;17.56;76.91;94939.56;4818566;29;20061;-91
2022/05/12 06:25:27;;;;;;;5.65;1.63;;;;;;;17.58;99.92;94940.84;4832984;29;20034;-91
2022/05/12 06:27:53;;;;;;;6.68;1.65;;;;;;;17.90;80.10;94935.66;4818235;29;20033;-91
2022/05/12 06:30:20;;;;;;;5.57;1.88;;;;;;;17.89;100.00;94945.47;4817704;29;20093;-91
2022/05/12 06:33:27;;;;;;;6.72;1.75;;;;;;;18.21;94.85;94945.59;4817936;29;20348;-91
2022/05/12 06:35:55;;;;;;;7.82;1.60;;;;;;;18.02;81.83;94948.38;4832707;29;20061;-91
2022/05/12 06:38:21;;;;;;;10.80;1.98;;;;;;;18.08;59.46;94939.28;4817928;29;20037;-91
2022/05/12 06:40:46;;;;;;;5.15;1.70;;;;;;;18.19;100.00;94937.16;4817964;29;20033;-91
2022/05/12 06:43:15;;;;;;;5.93;1.60;;;;;;;18.26;76.15;94945.47;4817836;29;20080;-91
2022/05/12 06:45:41;;;;;;;6.93;1.90;;;;;;;18.38;71.28;94936.97;4818233;29;20038;-90
2022/05/12 06:48:07;;;;;;;5.13;1.38;;;;;;;18.58;71.03;94940.19;4817860;29;20057;-90
2022/05/12 06:50:35;;;;;;;3.45;1.70;;;;;;;18.68;73.64;94947.91;4832701;29;20151;-91
2022/05/12 06:53:01;;;;;;;10.68;2.08;;;;;;;18.46;68.85;94941.53;4817600;29;20041;-91
2022/05/12 06:55:34;;;;;;;4.00;1.70;;;;;;;18.40;78.30;94940.09;4832490;29;20512;-90
2022/05/12 06:57:59;;;;;;;12.75;2.20;;;;;;;18.69;68.63;94946.81;4818382;29;20124;-90
2022/05/12 07:00:25;;;;;;;4.55;1.95;;;;;;;18.62;85.85;94943.78;4832559;29;20121;-91
2022/05/12 07:02:52;;;;;;;4.55;1.90;;;;;;;18.64;90.41;94953.03;4817350;29;20455;-90
2022/05/12 07:05:21;;;;;;;6.95;2.30;;;;;;;18.79;97.18;94946.56;4817348;29;20344;-91
2022/05/12 07:07:47;;;;;;;4.90;2.00;;;;;;;18.88;98.84;94946.59;4817585;29;20149;-91
2022/05/12 07:10:16;;;;;;;6.75;1.80;;;;;;;18.96;88.07;94945.06;4832056;29;20054;-90
2022/05/12 07:12:41;;;;;;;7.25;2.10;;;;;;;19.12;89.91;94942.03;4832325;29;20057;-90
2022/05/12 07:15:08;;;;;;;4.38;1.88;;;;;;;19.28;88.62;94953.00;4817351;29;20106;-90
2022/05/12 07:17:37;;;;;;;4.60;1.88;;;;;;;19.45;97.65;94949.63;4832398;29;20132;-90
2022/05/12 07:28:25;;;;;;;3.50;2.00;;;;;;;19.91;67.43;94956.22;4834284;29;20318;-90
2022/05/12 07:31:03;;;;;;;4.87;1.57;;;;;;;20.03;67.84;94958.31;4832022;29;20034;-91
2022/05/12 07:33:35;;;;;;;6.22;2.85;;;;;;;20.09;89.53;94948.31;4818534;29;20034;-90
2022/05/12 07:36:04;;;;;;;3.05;1.77;;;;;;;20.03;74.64;94954.88;4831675;29;20428;-90
2022/05/12 07:38:30;;;;;;;4.63;2.03;;;;;;;20.28;71.63;94957.84;4816649;29;20037;-90
2022/05/12 07:40:55;;;;;;;5.57;2.00;;;;;;;20.20;73.57;94954.84;4831772;29;20033;-90
2022/05/12 07:43:22;;;;;;;9.93;2.38;;;;;;;20.36;76.66;94948.28;4816535;29;20433;-91
2022/05/12 07:45:48;;;;;;;5.25;1.70;;;;;;;20.49;69.38;94948.09;4816344;29;20038;-91
2022/05/12 07:48:14;;;;;;;4.95;1.80;;;;;;;20.62;66.07;94953.53;4831743;29;20029;-90
2022/05/12 07:50:39;;;;;;;5.05;1.80;;;;;;;20.69;64.94;94955.72;4816561;29;20455;-90
2022/05/12 07:53:07;;;;;;;5.45;1.60;;;;;;;20.66;65.38;94951.81;4831170;29;20041;-90
2022/05/12 07:55:35;;;;;;;4.93;1.45;;;;;;;20.52;60.17;94944.00;4831084;29;20444;-91
2022/05/12 07:58:03;;;;;;;7.35;1.80;;;;;;;20.69;69.33;94950.38;4831643;29;20087;-91
2022/05/12 08:00:30;;;;;;;5.43;1.95;;;;;;;20.74;70.03;94959.00;4831644;29;20030;-90
2022/05/12 08:02:58;;;;;;;8.13;1.98;;;;;;;20.92;81.23;94966.19;4816390;29;20030;-90
2022/05/12 08:05:25;;;;;;;4.30;1.40;;;;;;;20.96;75.98;94961.78;4816042;29;20034;-90
2022/05/12 08:07:51;;;;;;;4.60;1.70;;;;;;;20.61;76.13;94957.31;4816316;29;20034;-90
2022/05/12 08:10:17;;;;;;;4.53;1.60;;;;;;;20.89;75.36;94960.41;4815975;29;20044;-90
2022/05/12 08:12:45;;;;;;;2.75;1.50;;;;;;;21.01;61.82;94969.59;4831161;29;20432;-90
2022/05/12 08:15:11;;;;;;;6.80;2.00;;;;;;;21.17;75.78;94967.19;4831367;29;20030;-90
2022/05/12 08:17:37;;;;;;;3.13;1.58;;;;;;;21.13;74.85;94971.59;4816129;29;20091;-91
2022/05/12 08:20:05;;;;;;;5.13;1.95;;;;;;;21.23;83.04;94967.78;4815862;29;20037;-90
2022/05/12 08:22:31;;;;;;;3.83;1.73;;;;;;;21.45;69.94;94969.41;4815841;29;20041;-89
2022/05/12 08:24:57;;;;;;;5.13;1.67;;;;;;;21.38;81.32;94969.13;4815950;29;20095;-90
2022/05/12 08:27:24;;;;;;;6.68;1.60;;;;;;;21.33;63.50;94965.53;4815780;29;20074;-90
2022/05/12 08:29:51;;;;;;;5.93;1.70;;;;;;;21.61;63.45;94965.06;4816109;29;20463;-90
2022/05/12 08:32:34;;;;;;;2.33;1.50;;;;;;;21.83;60.38;94971.25;4815624;29;20034;-89
2022/05/12 08:34:59;;;;;;;5.32;1.63;;;;;;;21.92;66.68;94973.06;4816150;29;20044;-90
2022/05/12 08:37:27;;;;;;;4.57;1.67;;;;;;;21.88;67.06;94968.38;4815835;29;20128;-90
2022/05/12 08:40:00;;;;;;;5.78;1.50;;;;;;;21.84;69.12;94975.47;4816045;29;20037;-90
2022/05/12 08:43:17;;;;;;;5.47;1.87;;;;;;;21.74;72.43;94973.19;4831378;29;20120;-90
2022/05/12 08:45:44;;;;;;;2.97;1.60;;;;;;;21.80;66.55;94971.88;4830709;29;20086;-91
2022/05/12 08:48:12;;;;;;;6.95;2.10;;;;;;;21.95;63.51;94967.06;4815557;29;20121;-89
2022/05/12 08:50:40;;;;;;;7.72;2.15;;;;;;;22.12;63.28;94969.63;4815339;29;20038;-90
2022/05/12 08:53:12;;;;;;;2.80;1.80;;;;;;;22.30;70.81;94977.47;4830668;29;20034;-91
2022/05/12 08:55:54;;;;;;;3.65;1.77;;;;;;;22.23;64.15;94974.53;4815615;29;20103;-90
2022/05/12 08:58:36;;;;;;;6.70;1.83;;;;;;;22.39;66.66;94977.38;4830385;29;20515;-90
2022/05/12 09:01:11;;;;;;;5.18;1.60;;;;;;;22.42;70.01;94977.53;4815241;29;20339;-90
2022/05/12 09:04:07;;;;;;;7.88;2.03;;;;;;;22.59;62.31;94975.81;4846368;29;20120;-91
2022/05/12 09:06:55;;;;;;;4.40;2.10;;;;;;;22.35;75.55;94977.25;4830693;29;20086;-90
2022/05/12 09:09:54;;;;;;;;;;;;;;;;;;;;;
2022/05/12 09:12:29;;;;;;;5.75;1.88;;;;;;;22.58;58.01;94976.94;4816982;29;20048;-91
2022/05/12 09:15:07;;;;;;;4.75;1.92;;;;;;;22.57;61.45;94978.03;4814755;29;20037;-91
2022/05/12 09:17:59;;;;;;;4.85;1.60;;;;;;;22.56;57.40;94974.59;4830544;29;20026;-90
2022/05/12 09:20:28;;;;;;;6.43;1.52;;;;;;;22.72;60.82;94982.75;4829664;29;20054;-90
2022/05/12 09:22:54;;;;;;;3.95;1.83;;;;;;;22.93;70.11;94981.13;4830391;29;20500;-90
2022/05/12 09:25:39;;;;;;;3.53;1.60;;;;;;;22.78;70.71;94985.22;4830208;29;20033;-90
2022/05/12 09:28:34;;;;;;;7.32;2.08;;;;;;;22.61;56.42;94986.19;4814940;29;20455;-90
2022/05/12 09:31:18;;;;;;;3.88;2.13;;;;;;;22.71;62.40;94978.53;4814772;29;20044;-90
2022/05/12 09:33:58;;;;;;;7.32;2.47;;;;;;;22.81;62.37;94981.88;4829823;29;20056;-90
2022/05/12 09:36:24;;;;;;;6.82;1.83;;;;;;;22.77;59.71;94972.97;4816280;29;20326;-90
2022/05/12 09:38:54;;;;;;;6.57;1.80;;;;;;;22.63;54.87;94974.03;4830252;29;20037;-90
2022/05/12 09:41:33;;;;;;;6.93;1.90;;;;;;;22.67;64.16;94971.50;4830628;29;20117;-90
2022/05/12 09:44:26;;;;;;;6.50;1.73;;;;;;;22.92;61.62;94969.66;4814564;29;20037;-90
2022/05/12 09:46:58;;;;;;;7.50;2.30;;;;;;;22.87;62.92;94967.22;4815142;29;20041;-90
2022/05/12 09:49:31;;;;;;;4.28;1.80;;;;;;;22.88;60.21;94966.88;4829983;29;20097;-90
2022/05/12 09:51:57;;;;;;;5.72;2.03;;;;;;;23.06;60.69;94977.38;4829998;29;20086;-90
2022/05/12 09:54:29;;;;;;;4.85;1.95;;;;;;;22.96;56.53;94969.78;4829960;29;20041;-90
2022/05/12 09:57:04;;;;;;;6.65;1.98;;;;;;;23.04;58.08;94965.44;4815133;29;20046;-89
2022/05/12 09:59:31;;;;;;;7.82;2.25;;;;;;;23.19;70.20;94972.81;4829870;29;20381;-90
2022/05/12 10:08:28;;;;;;;4.32;1.75;;;;;;;23.05;63.36;94972.34;4832099;29;20121;-90
2022/05/12 10:11:01;;;;;;;3.95;1.80;;;;;;;23.22;55.93;94972.13;4829901;29;20132;-90
2022/05/12 10:14:02;;;;;;;5.60;2.00;;;;;;;23.46;59.76;94975.19;4829968;29;20068;-90
2022/05/12 10:16:30;;;;;;;7.75;1.88;;;;;;;23.49;60.72;94974.53;4827165;29;20069;-90
2022/05/12 10:18:59;;;;;;;11.95;2.20;;;;;;;23.38;51.30;94979.50;4829802;29;20029;-91
2022/05/12 10:21:30;;;;;;;8.77;2.03;;;;;;;23.45;52.93;94971.72;4829401;29;20336;-90
2022/05/12 10:24:27;;;;;;;5.55;1.98;;;;;;;23.35;49.48;94974.84;4829725;29;20116;-91
2022/05/12 10:27:44;;;;;;;;;;;;;;;;;;;;;
2022/05/12 10:30:43;;;;;;;8.35;1.73;;;;;;;23.47;53.16;94966.81;4768235;29;20460;-90
2022/05/12 10:34:02;;;;;;;6.32;1.70;;;;;;;23.84;58.17;94963.31;4833097;29;20096;-89
2022/05/12 10:36:30;;;;;;;5.03;1.75;;;;;;;24.07;67.07;94958.25;4778190;29;20091;-91
2022/05/12 10:39:34;;;;;;;5.10;1.80;;;;;;;24.10;55.53;94949.56;4814825;29;20391;-91
2022/05/12 10:42:16;;;;;;;4.85;1.55;;;;;;;23.62;50.16;94948.53;4802742;29;20078;-91
2022/05/12 10:44:57;;;;;;;5.25;1.80;;;;;;;23.76;49.66;94945.50;4830669;29;20038;-91
2022/05/12 10:47:33;;;;;;;3.58;1.70;;;;;;;23.79;57.71;94948.28;4815065;29;20045;-92
2022/05/12 10:50:08;;;;;;;8.93;2.05;;;;;;;23.87;68.12;94946.59;4814575;29;20038;-90
2022/05/12 10:52:49;;;;;;;6.88;2.17;;;;;;;23.86;58.47;94951.16;4799574;29;20038;-92
2022/05/12 10:55:26;;;;;;;4.57;1.73;;;;;;;24.19;68.21;94954.78;4814382;29;20040;-92
2022/05/12 10:58:19;;;;;;;7.63;1.90;;;;;;;24.04;56.54;94950.16;4799810;29;20034;-92
2022/05/12 11:01:09;;;;;;;3.83;2.15;;;;;;;24.04;56.08;94948.25;4799922;29;20035;-93
2022/05/12 11:03:55;;;;;;;6.57;2.28;;;;;;;23.99;56.25;94945.78;4814365;29;20030;-93
2022/05/12 11:06:25;;;;;;;7.10;1.90;;;;;;;24.08;62.09;94948.34;4800061;29;20038;-91
2022/05/12 11:08:56;;;;;;;3.88;1.90;;;;;;;24.02;59.13;94945.09;4799172;29;20421;-93
2022/05/12 11:11:25;;;;;;;6.15;1.90;;;;;;;23.90;59.83;94950.50;4799076;29;20072;-92
2022/05/12 11:14:01;;;;;;;7.07;2.45;;;;;;;23.80;58.53;94949.06;4799143;29;20424;-92
2022/05/12 11:16:37;;;;;;;7.53;2.30;;;;;;;23.66;59.22;94946.72;4798690;29;20042;-92
2022/05/12 11:19:21;;;;;;;6.82;2.28;;;;;;;23.77;58.05;94947.06;4790763;29;20433;-91
2022/05/12 11:22:27;;;;;;;6.88;2.03;;;;;;;23.94;64.41;94948.69;4813763;29;20091;-90
2022/05/12 11:25:16;;;;;;;6.13;2.53;;;;;;;24.29;75.95;94945.47;4828374;29;20149;-91
2022/05/12 11:29:41;;;;;;;6.03;2.25;;;;;;;24.55;73.88;94952.28;4814808;29;20031;-91
2022/05/12 11:30:47;;;;;;;11.93;2.30;;;;;;;24.14;63.37;94949.66;4829627;29;20466;-92
2022/05/12 11:33:44;;;;;;;3.83;2.15;;;;;;;24.34;76.11;94944.47;4798772;29;20041;-91
2022/05/12 11:36:11;;;;;;;9.15;2.65;;;;;;;24.28;66.97;94943.94;4829910;29;20461;-91
2022/05/12 11:38:37;;;;;;;5.93;2.40;;;;;;;24.27;71.67;94937.78;4812849;29;20103;-91
2022/05/12 11:41:04;;;;;;;12.52;3.00;;;;;;;23.90;70.27;94943.25;4813475;29;20444;-92
2022/05/12 11:46:50;;;;;;;4.20;2.50;;;;;;;24.39;79.54;94939.66;4815848;29;20044;-91
2022/05/12 11:49:40;;;;;;;7.50;2.50;;;;;;;24.40;74.44;94946.56;4829928;29;20034;-91
2022/05/12 11:52:51;;;;;;;9.05;3.00;;;;;;;24.13;77.97;94937.38;4813693;29;20444;-90
2022/05/12 11:55:30;;;;;;;7.82;2.70;;;;;;;24.42;76.61;94941.63;4807857;29;20046;-90
2022/05/12 11:58:16;;;;;;;11.80;2.85;;;;;;;24.50;70.86;94944.47;4813278;29;20087;-90
2022/05/12 12:00:43;;;;;;;9.18;3.00;;;;;;;24.27;82.62;94940.47;4808192;29;20457;-91
2022/05/12 12:03:50;;;;;;;6.28;2.65;;;;;;;24.42;73.84;94930.13;4829051;29;20040;-90
2022/05/12 12:06:48;;;;;;;11.98;3.00;;;;;;;24.38;79.58;94927.34;4829149;29;20033;-90
2022/05/12 12:09:34;;;;;;;8.80;3.00;;;;;;;24.66;82.05;94926.53;4812827;29;20037;-90
2022/05/12 12:12:00;;;;;;;6.72;2.90;;;;;;;24.67;70.77;94920.06;4828867;29;20338;-90
2022/05/12 12:14:48;;;;;;;7.97;3.08;;;;;;;24.87;86.95;94916.72;4796312;29;20030;-90
2022/05/12 12:17:36;;;;;;;8.27;3.28;;;;;;;24.82;75.07;94918.53;4817844;29;20019;-90
2022/05/12 12:20:11;;;;;;;5.97;2.60;;;;;;;24.98;76.20;94915.88;4813024;29;20356;-91
2022/05/12 12:22:53;;;;;;;11.77;2.88;;;;;;;24.78;69.44;94920.38;4788547;29;20472;-91
2022/05/12 12:25:29;;;;;;;9.77;2.80;;;;;;;24.65;69.64;94922.28;4779740;29;20353;-90
2022/05/12 12:27:57;;;;;;;7.05;2.53;;;;;;;24.71;69.45;94925.50;4810588;29;20110;-91
2022/05/12 12:30:34;;;;;;;10.75;3.65;;;;;;;24.70;100.00;94918.59;4794564;29;20035;-90
2022/05/12 12:33:25;;;;;;;6.50;2.60;;;;;;;24.28;70.66;94922.50;4794412;29;20035;-90
2022/05/12 12:36:15;;;;;;;6.60;2.80;;;;;;;24.49;76.40;94916.16;4810330;29;20035;-90